sensor_id;sensor_type;location;lat;lon;timestamp;pressure;altitude;pressure_sealevel;temperature;humidity
16664;BME280;8445;51.270;9.434;2022-12-18T00:01:20;100861.94;;;-7.91;80.76
16664;BME280;8445;51.270;9.434;2022-12-18T00:03:46;100849.94;;;-7.92;79.97
16664;BME280;8445;51.270;9.434;2022-12-18T00:06:13;100860.28;;;-7.89;80.68
16664;BME280;8445;51.270;9.434;2022-12-18T00:08:40;100860.22;;;-7.92;80.74
16664;BME280;8445;51.270;9.434;2022-12-18T00:11:07;100868.97;;;-7.83;81.01
16664;BME280;8445;51.270;9.434;2022-12-18T00:13:34;100865.50;;;-7.85;80.73
16664;BME280;8445;51.270;9.434;2022-12-18T00:16:04;100877.38;;;-7.89;80.83
16664;BME280;8445;51.270;9.434;2022-12-18T00:18:31;100877.34;;;-7.91;80.80
16664;BME280;8445;51.270;9.434;2022-12-18T00:20:59;100885.06;;;-7.91;81.32
16664;BME280;8445;51.270;9.434;2022-12-18T00:23:26;100872.16;;;-7.94;80.93
16664;BME280;8445;51.270;9.434;2022-12-18T00:25:52;100870.41;;;-7.95;80.35
16664;BME280;8445;51.270;9.434;2022-12-18T00:28:18;100873.72;;;-7.99;80.14
16664;BME280;8445;51.270;9.434;2022-12-18T00:30:45;100871.84;;;-8.06;79.33
16664;BME280;8445;51.270;9.434;2022-12-18T00:33:10;100872.50;;;-8.15;79.64
16664;BME280;8445;51.270;9.434;2022-12-18T00:35:36;100874.94;;;-8.20;79.47
16664;BME280;8445;51.270;9.434;2022-12-18T00:38:01;100885.13;;;-8.23;80.33
16664;BME280;8445;51.270;9.434;2022-12-18T00:40:27;100881.63;;;-8.26;79.68
16664;BME280;8445;51.270;9.434;2022-12-18T00:42:52;100881.53;;;-8.31;79.39
16664;BME280;8445;51.270;9.434;2022-12-18T00:45:25;100870.28;;;-8.35;79.81
16664;BME280;8445;51.270;9.434;2022-12-18T00:47:51;100878.63;;;-8.43;79.21
16664;BME280;8445;51.270;9.434;2022-12-18T00:50:17;100876.00;;;-8.46;79.26
16664;BME280;8445;51.270;9.434;2022-12-18T00:52:43;100875.16;;;-8.45;79.29
16664;BME280;8445;51.270;9.434;2022-12-18T00:55:09;100876.78;;;-8.51;79.16
16664;BME280;8445;51.270;9.434;2022-12-18T00:57:34;100877.53;;;-8.53;78.32
16664;BME280;8445;51.270;9.434;2022-12-18T01:00:00;100871.63;;;-8.51;78.83
16664;BME280;8445;51.270;9.434;2022-12-18T01:02:25;100881.03;;;-8.51;78.73
16664;BME280;8445;51.270;9.434;2022-12-18T01:04:50;100874.13;;;-8.54;78.54
16664;BME280;8445;51.270;9.434;2022-12-18T01:07:18;100879.34;;;-8.51;79.39
16664;BME280;8445;51.270;9.434;2022-12-18T01:09:44;100881.16;;;-8.45;79.63
16664;BME280;8445;51.270;9.434;2022-12-18T01:12:09;100885.44;;;-8.44;80.01
16664;BME280;8445;51.270;9.434;2022-12-18T01:14:35;100905.13;;;-8.44;78.81
16664;BME280;8445;51.270;9.434;2022-12-18T01:17:01;100902.56;;;-8.44;79.34
16664;BME280;8445;51.270;9.434;2022-12-18T01:19:31;100905.22;;;-8.41;79.27
16664;BME280;8445;51.270;9.434;2022-12-18T01:21:58;100898.34;;;-8.42;78.54
16664;BME280;8445;51.270;9.434;2022-12-18T01:24:24;100905.91;;;-8.47;78.77
16664;BME280;8445;51.270;9.434;2022-12-18T01:26:50;100898.22;;;-8.49;78.89
16664;BME280;8445;51.270;9.434;2022-12-18T01:29:16;100902.38;;;-8.52;78.72
16664;BME280;8445;51.270;9.434;2022-12-18T01:31:41;100904.75;;;-8.60;78.60
16664;BME280;8445;51.270;9.434;2022-12-18T01:34:08;100909.78;;;-8.63;78.83
16664;BME280;8445;51.270;9.434;2022-12-18T01:36:35;100913.09;;;-8.67;78.67
16664;BME280;8445;51.270;9.434;2022-12-18T01:39:06;100909.44;;;-8.75;78.12
16664;BME280;8445;51.270;9.434;2022-12-18T01:41:33;100910.06;;;-8.84;78.35
16664;BME280;8445;51.270;9.434;2022-12-18T01:44:50;100912.53;;;-8.89;78.54
16664;BME280;8445;51.270;9.434;2022-12-18T01:50:00;100903.78;;;-8.96;79.83
16664;BME280;8445;51.270;9.434;2022-12-18T01:52:28;100904.47;;;-9.01;78.74
16664;BME280;8445;51.270;9.434;2022-12-18T01:54:54;100900.09;;;-9.05;79.51
16664;BME280;8445;51.270;9.434;2022-12-18T01:57:22;100916.31;;;-9.05;78.60
16664;BME280;8445;51.270;9.434;2022-12-18T01:59:52;100910.16;;;-9.12;78.93
16664;BME280;8445;51.270;9.434;2022-12-18T02:02:18;100901.47;;;-9.17;78.17
16664;BME280;8445;51.270;9.434;2022-12-18T02:04:45;100903.13;;;-9.19;78.26
16664;BME280;8445;51.270;9.434;2022-12-18T02:10:15;100914.81;;;-9.29;78.50
16664;BME280;8445;51.270;9.434;2022-12-18T02:15:36;100900.00;;;-9.38;78.11
16664;BME280;8445;51.270;9.434;2022-12-18T02:18:21;100897.44;;;-9.38;79.01
16664;BME280;8445;51.270;9.434;2022-12-18T02:20:54;100901.75;;;-9.36;78.39
16664;BME280;8445;51.270;9.434;2022-12-18T02:23:36;100902.47;;;-9.41;77.93
16664;BME280;8445;51.270;9.434;2022-12-18T02:26:16;100903.13;;;-9.48;78.38
16664;BME280;8445;51.270;9.434;2022-12-18T02:28:47;100896.19;;;-9.52;78.17
16664;BME280;8445;51.270;9.434;2022-12-18T02:31:19;100893.31;;;-9.61;77.42
16664;BME280;8445;51.270;9.434;2022-12-18T02:33:52;100908.50;;;-9.68;77.69
16664;BME280;8445;51.270;9.434;2022-12-18T02:36:23;100900.59;;;-9.75;77.71
16664;BME280;8445;51.270;9.434;2022-12-18T02:38:52;100898.69;;;-9.81;77.70
16664;BME280;8445;51.270;9.434;2022-12-18T02:41:19;100900.34;;;-9.83;77.66
16664;BME280;8445;51.270;9.434;2022-12-18T02:44:00;100900.41;;;-9.81;77.80
16664;BME280;8445;51.270;9.434;2022-12-18T02:46:32;100881.47;;;-9.87;77.33
16664;BME280;8445;51.270;9.434;2022-12-18T02:52:39;100896.66;;;-9.91;77.71
16664;BME280;8445;51.270;9.434;2022-12-18T02:58:17;100907.56;;;-9.97;77.52
16664;BME280;8445;51.270;9.434;2022-12-18T03:01:09;100911.53;;;-10.07;77.39
16664;BME280;8445;51.270;9.434;2022-12-18T03:03:41;100909.59;;;-10.14;77.21
16664;BME280;8445;51.270;9.434;2022-12-18T03:06:28;100910.50;;;-10.12;77.82
16664;BME280;8445;51.270;9.434;2022-12-18T03:09:00;100899.19;;;-10.19;77.41
16664;BME280;8445;51.270;9.434;2022-12-18T03:11:32;100891.41;;;-10.22;77.30
16664;BME280;8445;51.270;9.434;2022-12-18T03:14:19;100894.66;;;-10.28;76.93
16664;BME280;8445;51.270;9.434;2022-12-18T03:16:51;100893.69;;;-10.31;76.96
16664;BME280;8445;51.270;9.434;2022-12-18T03:19:21;100886.72;;;-10.35;77.43
16664;BME280;8445;51.270;9.434;2022-12-18T03:21:54;100891.88;;;-10.34;77.62
16664;BME280;8445;51.270;9.434;2022-12-18T03:24:22;100892.53;;;-10.41;76.94
16664;BME280;8445;51.270;9.434;2022-12-18T03:26:53;100887.09;;;-10.50;76.78
16664;BME280;8445;51.270;9.434;2022-12-18T03:29:29;100885.13;;;-10.58;76.66
16664;BME280;8445;51.270;9.434;2022-12-18T03:32:09;100883.00;;;-10.71;77.13
16664;BME280;8445;51.270;9.434;2022-12-18T03:34:38;100881.03;;;-10.78;76.61
16664;BME280;8445;51.270;9.434;2022-12-18T03:37:07;100885.09;;;-10.83;76.71
16664;BME280;8445;51.270;9.434;2022-12-18T03:39:34;100887.56;;;-10.87;76.82
16664;BME280;8445;51.270;9.434;2022-12-18T03:42:16;100877.22;;;-10.90;76.60
16664;BME280;8445;51.270;9.434;2022-12-18T03:45:11;100889.19;;;-10.89;77.59
16664;BME280;8445;51.270;9.434;2022-12-18T03:47:53;100882.22;;;-10.93;76.90
16664;BME280;8445;51.270;9.434;2022-12-18T03:53:17;100877.22;;;-10.90;76.96
16664;BME280;8445;51.270;9.434;2022-12-18T03:55:47;100875.56;;;-10.89;77.40
16664;BME280;8445;51.270;9.434;2022-12-18T03:58:19;100871.34;;;-10.87;77.46
16664;BME280;8445;51.270;9.434;2022-12-18T04:01:00;100871.44;;;-10.84;77.10
16664;BME280;8445;51.270;9.434;2022-12-18T04:03:28;100874.06;;;-10.82;77.35
16664;BME280;8445;51.270;9.434;2022-12-18T04:05:57;100881.34;;;-10.69;78.26
16664;BME280;8445;51.270;9.434;2022-12-18T04:08:26;100879.94;;;-10.61;78.03
16664;BME280;8445;51.270;9.434;2022-12-18T04:11:03;100875.81;;;-10.55;77.89
16664;BME280;8445;51.270;9.434;2022-12-18T04:13:32;100867.34;;;-10.54;77.66
16664;BME280;8445;51.270;9.434;2022-12-18T04:16:00;100872.50;;;-10.53;77.44
16664;BME280;8445;51.270;9.434;2022-12-18T04:18:26;100873.25;;;-10.55;76.75
16664;BME280;8445;51.270;9.434;2022-12-18T04:20:52;100869.59;;;-10.64;76.79
16664;BME280;8445;51.270;9.434;2022-12-18T04:23:18;100875.22;;;-10.74;76.26
16664;BME280;8445;51.270;9.434;2022-12-18T04:25:44;100884.19;;;-10.85;76.52
16664;BME280;8445;51.270;9.434;2022-12-18T04:28:16;100893.25;;;-10.94;76.44
16664;BME280;8445;51.270;9.434;2022-12-18T04:30:46;100890.59;;;-10.97;76.58
16664;BME280;8445;51.270;9.434;2022-12-18T04:33:17;100891.41;;;-10.98;76.63
16664;BME280;8445;51.270;9.434;2022-12-18T04:35:46;100893.00;;;-11.02;76.39
16664;BME280;8445;51.270;9.434;2022-12-18T04:38:19;100888.50;;;-11.07;76.48
16664;BME280;8445;51.270;9.434;2022-12-18T04:40:56;100889.41;;;-11.07;76.76
16664;BME280;8445;51.270;9.434;2022-12-18T04:43:27;100883.63;;;-11.01;77.41
16664;BME280;8445;51.270;9.434;2022-12-18T04:46:08;100879.66;;;-10.93;77.45
16664;BME280;8445;51.270;9.434;2022-12-18T04:48:37;100881.50;;;-10.89;77.04
16664;BME280;8445;51.270;9.434;2022-12-18T04:51:05;100886.53;;;-10.92;77.34
16664;BME280;8445;51.270;9.434;2022-12-18T04:53:34;100889.28;;;-10.85;76.90
16664;BME280;8445;51.270;9.434;2022-12-18T04:56:07;100896.16;;;-10.84;77.15
16664;BME280;8445;51.270;9.434;2022-12-18T04:58:38;100894.31;;;-10.89;76.76
16664;BME280;8445;51.270;9.434;2022-12-18T05:01:16;100905.38;;;-10.88;76.97
16664;BME280;8445;51.270;9.434;2022-12-18T05:03:46;100902.22;;;-10.81;77.11
16664;BME280;8445;51.270;9.434;2022-12-18T05:06:20;100908.97;;;-10.83;76.80
16664;BME280;8445;51.270;9.434;2022-12-18T05:08:51;100904.28;;;-10.95;76.33
16664;BME280;8445;51.270;9.434;2022-12-18T05:11:21;100901.28;;;-11.07;76.38
16664;BME280;8445;51.270;9.434;2022-12-18T05:13:52;100899.81;;;-11.25;75.73
16664;BME280;8445;51.270;9.434;2022-12-18T05:16:30;100904.47;;;-11.37;75.90
16664;BME280;8445;51.270;9.434;2022-12-18T05:19:00;100903.00;;;-11.53;76.08
16664;BME280;8445;51.270;9.434;2022-12-18T05:21:30;100900.16;;;-11.61;76.34
16664;BME280;8445;51.270;9.434;2022-12-18T05:24:00;100909.78;;;-11.54;76.68
16664;BME280;8445;51.270;9.434;2022-12-18T05:26:30;100914.09;;;-11.53;76.64
16664;BME280;8445;51.270;9.434;2022-12-18T05:29:00;100915.00;;;-11.51;76.73
16664;BME280;8445;51.270;9.434;2022-12-18T05:31:34;100911.72;;;-11.48;76.82
16664;BME280;8445;51.270;9.434;2022-12-18T05:34:06;100917.81;;;-11.44;76.77
16664;BME280;8445;51.270;9.434;2022-12-18T05:36:36;100910.59;;;-11.55;76.31
16664;BME280;8445;51.270;9.434;2022-12-18T05:39:12;100905.25;;;-11.61;76.24
16664;BME280;8445;51.270;9.434;2022-12-18T05:41:42;100909.19;;;-11.69;76.09
16664;BME280;8445;51.270;9.434;2022-12-18T05:44:11;100905.56;;;-11.74;75.92
16664;BME280;8445;51.270;9.434;2022-12-18T05:46:40;100900.13;;;-11.84;76.26
16664;BME280;8445;51.270;9.434;2022-12-18T05:49:09;100902.69;;;-11.84;76.52
16664;BME280;8445;51.270;9.434;2022-12-18T05:51:35;100899.44;;;-11.80;77.10
16664;BME280;8445;51.270;9.434;2022-12-18T05:54:00;100899.66;;;-11.73;76.93
16664;BME280;8445;51.270;9.434;2022-12-18T05:56:26;100908.91;;;-11.77;76.57
16664;BME280;8445;51.270;9.434;2022-12-18T05:58:53;100908.66;;;-11.83;76.41
16664;BME280;8445;51.270;9.434;2022-12-18T06:01:22;100908.22;;;-11.94;76.34
16664;BME280;8445;51.270;9.434;2022-12-18T06:03:49;100914.84;;;-11.99;76.21
16664;BME280;8445;51.270;9.434;2022-12-18T06:06:20;100909.69;;;-12.01;76.72
16664;BME280;8445;51.270;9.434;2022-12-18T06:08:47;100907.94;;;-12.02;76.19
16664;BME280;8445;51.270;9.434;2022-12-18T06:11:16;100906.94;;;-12.05;76.40
16664;BME280;8445;51.270;9.434;2022-12-18T06:13:42;100910.19;;;-12.10;76.23
16664;BME280;8445;51.270;9.434;2022-12-18T06:16:08;100910.94;;;-12.12;76.12
16664;BME280;8445;51.270;9.434;2022-12-18T06:18:37;100906.56;;;-12.15;76.15
16664;BME280;8445;51.270;9.434;2022-12-18T06:21:02;100904.69;;;-12.19;76.33
16664;BME280;8445;51.270;9.434;2022-12-18T06:23:28;100906.44;;;-12.18;76.44
16664;BME280;8445;51.270;9.434;2022-12-18T06:25:54;100906.31;;;-12.21;76.48
16664;BME280;8445;51.270;9.434;2022-12-18T06:28:19;100916.50;;;-12.21;76.56
16664;BME280;8445;51.270;9.434;2022-12-18T06:30:46;100914.19;;;-12.16;76.56
16664;BME280;8445;51.270;9.434;2022-12-18T06:33:12;100916.78;;;-12.15;76.97
16664;BME280;8445;51.270;9.434;2022-12-18T06:35:37;100915.16;;;-12.13;76.59
16664;BME280;8445;51.270;9.434;2022-12-18T06:38:03;100922.81;;;-12.13;76.73
16664;BME280;8445;51.270;9.434;2022-12-18T06:40:29;100919.03;;;-12.01;76.87
16664;BME280;8445;51.270;9.434;2022-12-18T06:42:54;100924.19;;;-12.00;76.61
16664;BME280;8445;51.270;9.434;2022-12-18T06:45:20;100915.41;;;-12.07;76.41
16664;BME280;8445;51.270;9.434;2022-12-18T06:47:45;100932.97;;;-12.14;76.12
16664;BME280;8445;51.270;9.434;2022-12-18T06:50:12;100935.31;;;-12.19;76.60
16664;BME280;8445;51.270;9.434;2022-12-18T06:52:37;100937.94;;;-12.17;76.14
16664;BME280;8445;51.270;9.434;2022-12-18T06:55:04;100931.81;;;-12.21;76.28
16664;BME280;8445;51.270;9.434;2022-12-18T06:57:30;100929.22;;;-12.23;76.39
16664;BME280;8445;51.270;9.434;2022-12-18T06:59:55;100934.50;;;-12.18;76.58
16664;BME280;8445;51.270;9.434;2022-12-18T07:02:21;100932.28;;;-12.10;76.70
16664;BME280;8445;51.270;9.434;2022-12-18T07:04:46;100927.38;;;-12.05;76.57
16664;BME280;8445;51.270;9.434;2022-12-18T07:07:14;100938.25;;;-12.10;76.53
16664;BME280;8445;51.270;9.434;2022-12-18T07:09:40;100934.75;;;-12.12;76.24
16664;BME280;8445;51.270;9.434;2022-12-18T07:12:05;100935.53;;;-12.14;76.61
16664;BME280;8445;51.270;9.434;2022-12-18T07:14:31;100940.66;;;-12.13;76.44
16664;BME280;8445;51.270;9.434;2022-12-18T07:16:57;100952.50;;;-12.15;76.30
16664;BME280;8445;51.270;9.434;2022-12-18T07:19:22;100954.78;;;-12.21;76.01
16664;BME280;8445;51.270;9.434;2022-12-18T07:21:51;100952.09;;;-12.24;76.26
16664;BME280;8445;51.270;9.434;2022-12-18T07:24:17;100959.06;;;-12.20;76.74
16664;BME280;8445;51.270;9.434;2022-12-18T07:26:45;100959.59;;;-12.08;76.76
16664;BME280;8445;51.270;9.434;2022-12-18T07:29:11;100965.63;;;-12.05;76.75
16664;BME280;8445;51.270;9.434;2022-12-18T07:31:36;100969.00;;;-12.07;76.14
16664;BME280;8445;51.270;9.434;2022-12-18T07:34:02;100969.00;;;-12.07;76.39
16664;BME280;8445;51.270;9.434;2022-12-18T07:36:27;100962.81;;;-12.12;76.30
16664;BME280;8445;51.270;9.434;2022-12-18T07:38:53;100963.72;;;-12.11;76.51
16664;BME280;8445;51.270;9.434;2022-12-18T07:41:18;100964.44;;;-12.14;76.38
16664;BME280;8445;51.270;9.434;2022-12-18T07:43:44;100960.28;;;-12.12;76.27
16664;BME280;8445;51.270;9.434;2022-12-18T07:46:10;100965.47;;;-12.10;76.43
16664;BME280;8445;51.270;9.434;2022-12-18T07:48:39;100965.59;;;-12.07;76.29
16664;BME280;8445;51.270;9.434;2022-12-18T07:51:06;100969.00;;;-12.07;76.53
16664;BME280;8445;51.270;9.434;2022-12-18T07:53:32;100968.06;;;-12.09;76.02
16664;BME280;8445;51.270;9.434;2022-12-18T07:55:59;100968.88;;;-12.10;76.46
16664;BME280;8445;51.270;9.434;2022-12-18T07:58:25;100962.91;;;-12.10;76.51
16664;BME280;8445;51.270;9.434;2022-12-18T08:00:51;100968.88;;;-12.10;76.49
16664;BME280;8445;51.270;9.434;2022-12-18T08:03:17;100963.94;;;-12.05;76.57
16664;BME280;8445;51.270;9.434;2022-12-18T08:05:43;100964.06;;;-12.02;76.70
16664;BME280;8445;51.270;9.434;2022-12-18T08:08:08;100965.19;;;-11.95;77.02
16664;BME280;8445;51.270;9.434;2022-12-18T08:10:34;100956.84;;;-11.91;77.04
16664;BME280;8445;51.270;9.434;2022-12-18T08:12:59;100950.38;;;-11.83;77.01
16664;BME280;8445;51.270;9.434;2022-12-18T08:15:25;100947.94;;;-11.80;76.92
16664;BME280;8445;51.270;9.434;2022-12-18T08:17:50;100956.63;;;-11.74;76.67
16664;BME280;8445;51.270;9.434;2022-12-18T08:20:16;100956.84;;;-11.70;77.17
16664;BME280;8445;51.270;9.434;2022-12-18T08:22:44;100956.06;;;-11.67;77.03
16664;BME280;8445;51.270;9.434;2022-12-18T08:25:12;100947.72;;;-11.63;76.87
16664;BME280;8445;51.270;9.434;2022-12-18T08:27:38;100947.03;;;-11.59;77.14
16664;BME280;8445;51.270;9.434;2022-12-18T08:30:04;100946.41;;;-11.53;77.09
16664;BME280;8445;51.270;9.434;2022-12-18T08:32:30;100940.66;;;-11.48;77.46
16664;BME280;8445;51.270;9.434;2022-12-18T08:34:55;100934.41;;;-11.33;77.61
16664;BME280;8445;51.270;9.434;2022-12-18T08:37:24;100932.22;;;-11.24;77.58
16664;BME280;8445;51.270;9.434;2022-12-18T08:39:49;100935.06;;;-11.16;77.30
16664;BME280;8445;51.270;9.434;2022-12-18T08:42:15;100948.88;;;-11.11;77.25
16664;BME280;8445;51.270;9.434;2022-12-18T08:44:59;100938.88;;;-11.05;77.36
16664;BME280;8445;51.270;9.434;2022-12-18T08:47:27;100937.28;;;-11.01;77.34
16664;BME280;8445;51.270;9.434;2022-12-18T08:49:52;100927.25;;;-10.96;77.54
16664;BME280;8445;51.270;9.434;2022-12-18T08:52:18;100919.75;;;-10.92;77.72
16664;BME280;8445;51.270;9.434;2022-12-18T08:54:44;100925.19;;;-10.82;77.91
16664;BME280;8445;51.270;9.434;2022-12-18T08:57:09;100923.91;;;-10.71;77.72
16664;BME280;8445;51.270;9.434;2022-12-18T08:59:35;100918.22;;;-10.62;77.89
16664;BME280;8445;51.270;9.434;2022-12-18T09:02:00;100916.94;;;-10.51;77.88
16664;BME280;8445;51.270;9.434;2022-12-18T09:04:26;100908.75;;;-10.40;77.92
16664;BME280;8445;51.270;9.434;2022-12-18T09:06:54;100904.88;;;-10.28;77.94
16664;BME280;8445;51.270;9.434;2022-12-18T09:09:19;100911.16;;;-10.18;78.26
16664;BME280;8445;51.270;9.434;2022-12-18T09:11:45;100903.66;;;-10.13;78.08
16664;BME280;8445;51.270;9.434;2022-12-18T09:14:10;100914.09;;;-10.07;78.07
16664;BME280;8445;51.270;9.434;2022-12-18T09:16:36;100903.38;;;-9.95;78.46
16664;BME280;8445;51.270;9.434;2022-12-18T09:19:03;100899.72;;;-9.76;78.99
16664;BME280;8445;51.270;9.434;2022-12-18T09:21:34;100905.41;;;-9.57;78.78
16664;BME280;8445;51.270;9.434;2022-12-18T09:24:04;100905.22;;;-9.34;79.04
16664;BME280;8445;51.270;9.434;2022-12-18T09:26:30;100897.81;;;-9.25;78.76
16664;BME280;8445;51.270;9.434;2022-12-18T09:28:55;100892.19;;;-9.13;79.05
16664;BME280;8445;51.270;9.434;2022-12-18T09:31:22;100898.72;;;-8.94;79.28
16664;BME280;8445;51.270;9.434;2022-12-18T09:33:51;100900.09;;;-8.73;79.32
16664;BME280;8445;51.270;9.434;2022-12-18T09:36:17;100897.31;;;-8.51;79.47
16664;BME280;8445;51.270;9.434;2022-12-18T09:38:44;100891.88;;;-8.28;79.76
16664;BME280;8445;51.270;9.434;2022-12-18T09:42:04;100889.00;;;-8.05;79.59
16664;BME280;8445;51.270;9.434;2022-12-18T09:44:17;100889.38;;;-7.90;79.17
16664;BME280;8445;51.270;9.434;2022-12-18T09:46:49;100898.28;;;-7.75;79.82
16664;BME280;8445;51.270;9.434;2022-12-18T09:49:19;100902.00;;;-7.61;79.85
16664;BME280;8445;51.270;9.434;2022-12-18T09:51:52;100904.94;;;-7.45;80.08
16664;BME280;8445;51.270;9.434;2022-12-18T09:54:26;100906.94;;;-7.32;80.21
16664;BME280;8445;51.270;9.434;2022-12-18T09:56:54;100902.00;;;-7.22;79.73
16664;BME280;8445;51.270;9.434;2022-12-18T09:59:36;100902.44;;;-7.02;80.43
16664;BME280;8445;51.270;9.434;2022-12-18T10:02:16;100906.38;;;-6.75;80.37
16664;BME280;8445;51.270;9.434;2022-12-18T10:04:42;100897.34;;;-6.55;80.02
16664;BME280;8445;51.270;9.434;2022-12-18T10:07:20;100875.25;;;-6.42;79.32
16664;BME280;8445;51.270;9.434;2022-12-18T10:15:27;100871.81;;;-6.42;79.74
16664;BME280;8445;51.270;9.434;2022-12-18T10:20:48;100876.34;;;-6.29;79.77
16664;BME280;8445;51.270;9.434;2022-12-18T10:23:25;100880.72;;;-6.23;79.53
16664;BME280;8445;51.270;9.434;2022-12-18T10:25:58;100885.94;;;-6.20;79.99
16664;BME280;8445;51.270;9.434;2022-12-18T10:28:26;100876.56;;;-6.15;79.65
16664;BME280;8445;51.270;9.434;2022-12-18T10:30:54;100882.56;;;-6.14;79.59
16664;BME280;8445;51.270;9.434;2022-12-18T10:33:22;100875.88;;;-6.04;80.01
16664;BME280;8445;51.270;9.434;2022-12-18T10:35:52;100876.78;;;-6.01;79.80
16664;BME280;8445;51.270;9.434;2022-12-18T10:48:50;100868.78;;;-4.93;81.39
16664;BME280;8445;51.270;9.434;2022-12-18T10:51:23;100861.28;;;-4.70;81.36
16664;BME280;8445;51.270;9.434;2022-12-18T10:54:13;100854.63;;;-4.51;80.97
16664;BME280;8445;51.270;9.434;2022-12-18T10:56:43;100845.22;;;-4.41;80.44
16664;BME280;8445;51.270;9.434;2022-12-18T10:59:11;100839.34;;;-4.24;80.50
16664;BME280;8445;51.270;9.434;2022-12-18T11:01:58;100835.97;;;-4.15;80.28
16664;BME280;8445;51.270;9.434;2022-12-18T11:04:26;100839.44;;;-4.10;79.98
16664;BME280;8445;51.270;9.434;2022-12-18T11:09:25;100833.25;;;-4.33;79.00
16664;BME280;8445;51.270;9.434;2022-12-18T11:11:53;100833.16;;;-4.42;78.98
16664;BME280;8445;51.270;9.434;2022-12-18T11:14:29;100824.41;;;-4.56;79.26
16664;BME280;8445;51.270;9.434;2022-12-18T11:16:57;100824.44;;;-4.53;79.76
16664;BME280;8445;51.270;9.434;2022-12-18T11:19:53;100815.94;;;-4.44;80.37
16664;BME280;8445;51.270;9.434;2022-12-18T11:22:25;100814.25;;;-4.38;80.09
16664;BME280;8445;51.270;9.434;2022-12-18T11:27:28;100807.56;;;-4.14;80.39
16664;BME280;8445;51.270;9.434;2022-12-18T11:30:39;100804.19;;;-4.00;80.84
16664;BME280;8445;51.270;9.434;2022-12-18T11:33:21;100793.97;;;-3.82;81.27
16664;BME280;8445;51.270;9.434;2022-12-18T11:36:00;100788.91;;;-3.66;80.97
16664;BME280;8445;51.270;9.434;2022-12-18T11:38:40;100811.38;;;-3.56;81.47
16664;BME280;8445;51.270;9.434;2022-12-18T11:43:52;100811.50;;;-3.25;81.49
16664;BME280;8445;51.270;9.434;2022-12-18T11:46:30;100805.53;;;-3.05;81.15
16664;BME280;8445;51.270;9.434;2022-12-18T11:49:12;100796.94;;;-2.89;80.80
16664;BME280;8445;51.270;9.434;2022-12-18T11:51:44;100777.97;;;-2.69;81.15
16664;BME280;8445;51.270;9.434;2022-12-18T11:54:13;100765.91;;;-2.55;80.55
16664;BME280;8445;51.270;9.434;2022-12-18T12:02:57;100745.13;;;-2.14;80.50
16664;BME280;8445;51.270;9.434;2022-12-18T12:07:55;100740.81;;;-2.06;80.20
16664;BME280;8445;51.270;9.434;2022-12-18T12:11:01;100740.81;;;-2.03;80.15
16664;BME280;8445;51.270;9.434;2022-12-18T12:13:40;100728.69;;;-2.01;79.88
16664;BME280;8445;51.270;9.434;2022-12-18T12:16:24;100727.81;;;-1.95;80.25
16664;BME280;8445;51.270;9.434;2022-12-18T12:21:42;100723.47;;;-1.85;80.07
16664;BME280;8445;51.270;9.434;2022-12-18T12:30:09;100717.34;;;-1.67;79.99
16664;BME280;8445;51.270;9.434;2022-12-18T12:35:19;100703.50;;;-1.60;80.92
16664;BME280;8445;51.270;9.434;2022-12-18T12:41:09;100707.72;;;-1.42;81.12
16664;BME280;8445;51.270;9.434;2022-12-18T12:44:01;100699.03;;;-1.35;81.54
16664;BME280;8445;51.270;9.434;2022-12-18T12:46:31;100699.88;;;-1.32;80.27
16664;BME280;8445;51.270;9.434;2022-12-18T12:49:07;100686.91;;;-1.32;80.30
16664;BME280;8445;51.270;9.434;2022-12-18T12:51:41;100688.63;;;-1.28;81.05
16664;BME280;8445;51.270;9.434;2022-12-18T12:54:16;100694.66;;;-1.23;81.02
16664;BME280;8445;51.270;9.434;2022-12-18T12:56:55;100691.19;;;-1.22;80.54
16664;BME280;8445;51.270;9.434;2022-12-18T13:07:39;100698.13;;;-1.24;80.02
16664;BME280;8445;51.270;9.434;2022-12-18T13:20:39;100694.66;;;-1.23;80.05
16664;BME280;8445;51.270;9.434;2022-12-18T13:26:00;100693.78;;;-1.25;79.90
16664;BME280;8445;51.270;9.434;2022-12-18T13:31:12;100699.88;;;-1.29;80.25
16664;BME280;8445;51.270;9.434;2022-12-18T13:36:26;100711.16;;;-1.33;79.86
16664;BME280;8445;51.270;9.434;2022-12-18T13:39:31;100708.56;;;-1.38;79.52
16664;BME280;8445;51.270;9.434;2022-12-18T13:44:37;100695.63;;;-1.49;80.24
16664;BME280;8445;51.270;9.434;2022-12-18T13:47:26;100688.75;;;-1.52;80.06
16664;BME280;8445;51.270;9.434;2022-12-18T13:49:53;100688.75;;;-1.53;80.20
16664;BME280;8445;51.270;9.434;2022-12-18T13:52:28;100686.16;;;-1.55;80.43
16664;BME280;8445;51.270;9.434;2022-12-18T13:54:56;100683.56;;;-1.59;80.11
16664;BME280;8445;51.270;9.434;2022-12-18T13:57:33;100681.00;;;-1.62;79.93
16664;BME280;8445;51.270;9.434;2022-12-18T14:00:23;100679.31;;;-1.68;79.99
16664;BME280;8445;51.270;9.434;2022-12-18T14:02:50;100678.44;;;-1.75;80.16
16664;BME280;8445;51.270;9.434;2022-12-18T14:05:35;100676.78;;;-1.82;80.14
16664;BME280;8445;51.270;9.434;2022-12-18T14:08:08;100670.72;;;-1.89;79.98
16664;BME280;8445;51.270;9.434;2022-12-18T14:10:35;100676.81;;;-1.95;80.11
16664;BME280;8445;51.270;9.434;2022-12-18T14:13:07;100677.66;;;-1.97;80.40
16664;BME280;8445;51.270;9.434;2022-12-18T14:15:45;100674.25;;;-2.01;80.38
16664;BME280;8445;51.270;9.434;2022-12-18T14:20:43;100671.69;;;-2.15;79.96
16664;BME280;8445;51.270;9.434;2022-12-18T14:23:44;100676.03;;;-2.20;80.38
16664;BME280;8445;51.270;9.434;2022-12-18T14:26:20;100679.50;;;-2.24;80.63
16664;BME280;8445;51.270;9.434;2022-12-18T14:28:46;100685.53;;;-2.30;80.42
16664;BME280;8445;51.270;9.434;2022-12-18T14:31:29;100678.63;;;-2.34;80.15
16664;BME280;8445;51.270;9.434;2022-12-18T14:33:55;100673.47;;;-2.37;80.20
16664;BME280;8445;51.270;9.434;2022-12-18T14:36:24;100674.34;;;-2.41;80.22
16664;BME280;8445;51.270;9.434;2022-12-18T14:38:52;100685.59;;;-2.48;79.85
16664;BME280;8445;51.270;9.434;2022-12-18T14:41:20;100683.88;;;-2.53;80.45
16664;BME280;8445;51.270;9.434;2022-12-18T14:43:48;100690.78;;;-2.61;79.86
16664;BME280;8445;51.270;9.434;2022-12-18T14:46:47;100687.31;;;-2.63;80.05
16664;BME280;8445;51.270;9.434;2022-12-18T14:51:49;100690.78;;;-2.73;80.32
16664;BME280;8445;51.270;9.434;2022-12-18T14:54:18;100683.00;;;-2.76;80.21
16664;BME280;8445;51.270;9.434;2022-12-18T14:56:46;100691.66;;;-2.76;79.85